• Join FlightAware (Why Join?)
  • Login
  • US Flag 
01:35PM EDT


 

Airport Tracker/Info


-or-


 

Live Flight TrackerFlight Track Log ✈ SWA2524 ✈ 11-Dec-2013 ✈ KMSP - KMCI

Flight Track Log - Related Links

Times and Time Zones

All times are in EST time to prevent confusion due to time zone crossing. See the SWA2524 flight status page for this flight to view local times or setup timezone preferences in your user account.

Time Position Orientation Groundspeed Altitude Reporting Facility
EST Latitude Longitude Course Direction KTS MPH feet Rate Location/Type
08:56AM 44.9167 -93.2667 280° West 182 209 4,700  Level Minneapolis TRACON
08:56AM 44.9194 -93.2894 280° West 180 207 6,100 1,500 Climbing Minneapolis Center
08:58AM 44.8967 -93.3814 251° West 239 275 7,000 420 Climbing Minneapolis Center
08:59AM 44.8364 -93.4392 214° Southwest 263 303 7,000 1,680 Level Minneapolis Center
09:00AM 44.7647 -93.4736 199° South 276 318 10,500 2,880 Climbing Minneapolis Center
09:01AM 44.6814 -93.5106 197° South 321 369 13,000 3,060 Climbing Minneapolis Center
09:02AM 44.5797 -93.5561 198° South 385 443 16,800 3,600 Climbing Minneapolis Center
09:03AM 44.4528 -93.6108 197° South 398 458 20,500 3,240 Climbing Minneapolis Center
09:04AM 44.3489 -93.6836 207° Southwest 417 480 23,500 2,640 Climbing Minneapolis Center
09:05AM 44.2481 -93.7647 210° Southwest 418 481 26,000 2,640 Climbing Minneapolis Center
09:06AM 44.1456 -93.8475 210° Southwest 425 489 29,000 1,920 Climbing Minneapolis Center
09:07AM 44.0442 -93.9292 210° Southwest 423 487 30,000 480 Climbing Minneapolis Center
09:08AM 43.9439 -94.0075 209° Southwest 416 479 30,000 1,260 Level Minneapolis Center
09:09AM 43.8447 -94.0867 210° Southwest 412 474 32,600 2,340 Climbing Minneapolis Center
09:10AM 43.7272 -94.1797 210° Southwest 408 470 34,900 1,860 Climbing Minneapolis Center
09:11AM 43.6139 -94.2283 197° South 423 487 36,500 1,560 Climbing Minneapolis Center
09:12AM 43.4847 -94.2358 182° South 455 524 38,200 1,620 Climbing Minneapolis Center
09:13AM 43.3594 -94.2428 182° South 462 532 39,900 840 Climbing Minneapolis Center
09:14AM 43.2386 -94.2542 184° South 453 521 40,000  Climbing Minneapolis Center
09:15AM 43.0917 -94.2625 182° South 444 511 40,000  Level Minneapolis Center
09:16AM 42.9681 -94.2711 183° South 443 510 40,000  Level Minneapolis Center
09:17AM 42.8469 -94.2792 183° South 441 507 40,000  Level Minneapolis Center
09:18AM 42.7269 -94.2869 183° South 437 503 40,000  Level Minneapolis Center
09:19AM 42.6075 -94.2972 184° South 436 502 40,000  Level Minneapolis Center
09:20AM 42.4986 -94.3431 197° South 413 475 40,000  Level Minneapolis Center
09:21AM 42.3900 -94.3878 197° South 412 474 40,000  Level Minneapolis Center
09:22AM 42.2589 -94.4419 197° South 410 472 40,000  Level Minneapolis Center
09:23AM 42.1489 -94.4886 197° South 412 474 40,000  Level Minneapolis Center
09:24AM 42.0400 -94.5361 198° South 412 474 40,000  Level Minneapolis Center
09:25AM 41.9306 -94.5814 197° South 411 473 40,000  Level Minneapolis Center
09:26AM 41.8231 -94.6261 197° South 406 467 40,000  Level Minneapolis Center
09:27AM 41.7142 -94.6711 197° South 406 467 40,000  Level Minneapolis Center
09:28AM 41.6092 -94.7150 197° South 398 458 40,000  Level Minneapolis Center
09:29AM 41.4817 -94.7689 198° South 399 459 40,000 -60 Level Minneapolis Center
09:30AM 41.3753 -94.8117 197° South 398 458 39,900 -540 Descending Minneapolis Center
09:31AM 41.2697 -94.8550 197° South 396 456 38,900 -960 Descending Minneapolis Center
09:32AM 41.1611 -94.8983 197° South 399 459 38,000 -960 Descending Minneapolis Center
09:34AM 41.0528 -94.9436 197° South 403 464 37,000 -960 Descending Minneapolis Center
09:35AM 40.9472 -94.9867 197° South 401 461 36,100 -960 Descending Minneapolis Center
09:36AM 40.8428 -95.0297 197° South 397 457 35,100 -540 Descending Minneapolis Center
09:37AM 40.7367 -95.0719 197° South 396 456 35,000 -780 Descending Minneapolis Center
09:38AM 40.6317 -95.1131 197° South 394 453 33,500 -2,820 Descending Minneapolis Center
09:39AM 40.5072 -95.1644 197° South 390 449 29,200 -3,480 Descending Minneapolis Center
09:40AM 40.4031 -95.2053 197° South 390 449 26,400 -2,820 Descending Minneapolis Center
09:41AM 40.2992 -95.2456 196° South 388 447 23,500 -1,920 Descending Minneapolis Center
09:42AM 40.1983 -95.2864 197° South 383 441 22,500 -1,020 Descending Minneapolis Center
09:43AM 40.0981 -95.3264 197° South 378 435 21,500 -1,020 Descending Minneapolis Center
09:44AM 40.0022 -95.3636 197° South 383 441 20,500 -1,020 Descending Kansas City Center
09:45AM 39.9061 -95.4006 196° South 376 433 19,500 -1,320 Descending Kansas City Center
09:46AM 39.7881 -95.3586 165° South 426 490 17,900 -2,340 Descending Kansas City Center
09:47AM 39.6972 -95.2639 141° Southeast 434 499 14,800 -2,760 Descending Kansas City Center
09:48AM 39.5956 -95.1533 140° Southeast 424 488 12,300 -1,440 Descending Kansas City Center
09:49AM 39.5186 -95.0758 142° Southeast 372 428 11,900 -1,080 Descending Kansas City Center
09:50AM 39.4506 -95.0056 141° Southeast 329 379 10,200 -1,680 Descending Kansas City Center
09:51AM 39.3739 -94.9258 141° Southeast 316 364 8,500 -1,680 Descending Kansas City Center
09:52AM 39.3131 -94.8644 142° Southeast 291 335 6,800 -1,800 Descending Kansas City Center
09:53AM 39.2447 -94.8442 167° South 222 255 4,900 -1,620 Descending Kansas City Center
09:54AM 39.2253 -94.7900 115° Southeast 189 217 3,500 -1,200 Descending Kansas City Center
09:55AM 39.2294 -94.7481 83° East 127 146 2,400 -960 Descending Kansas City Center
09:56AM 39.2631 -94.7378 13° North 111 128 1,600 -720 Descending Kansas City Center
09:57AM 39.2914 -94.7292 13° North 110 127 1,000 -600 Descending Kansas City Center